Cayman Brac, Cayman Islands

3:09 AM EST on August 28, 2014 (GMT -0500)
Gerrard-Smith International | Change Station
CLOSE
Current Station
Airport
Location: Cayman Brac,
Elevation: 7 ft
Nearby Weather Stations

Elev 7 ft 19.69 °N, 79.88 °W | Updated 8 hours ago

Cloudy
Cloudy
84 °F
Feels Like 91 °F
N
7
Wind Variable Wind from SE
Gusts mph

Today
High -- | Low -- °F
--% Chance of Precip.
Yesterday
High -- | Low -- °F
Precip. -- in
6:03 AM 6:37 PM
Waxing Crescent, 7% visible
Pressure 29.95 in
Visibility 6.2 miles
Clouds Scattered Clouds 1600 ft
Scattered Clouds 3000 ft
Heat Index 91 °F
Dew Point 75 °F
Humidity 74%
Rainfall 0.00 in
Snow Depth Not available.
UV 0 out of 12
Pollen Not available.
Air Quality Not available.
Flu Activity Not available.
METAR MWCB 280000Z 14009KT 9999 VCSH SCT016CB SCT030 29/25 Q1014

More Conditions Fewer Conditions

Pressure 29.95 in
Visibility 6.2 miles
Clouds Scattered Clouds 1600 ft
Scattered Clouds 3000 ft
Heat Index 91 °F
Dew Point 75 °F
Humidity 74%
Rainfall 0.00 in
Snow Depth Not available.
UV 0 out of 12
Pollen Not available.
Air Quality Not available.
Flu Activity Not available.
METAR MWCB 280000Z 14009KT 9999 VCSH SCT016CB SCT030 29/25 Q1014

More Conditions Fewer Conditions

10-Day Weather Forecast

Almanac

Astronomy

Aug. 28, 2014 Rise Set
Actual Time 6:03 AM EST 6:37 PM EST
Civil Twilight 5:40 AM EST 7:00 PM EST
Nautical Twilight 5:14 AM EST 7:26 PM EST
Astronomical Twilight 4:48 AM EST 7:52 PM EST
Moon 8:26 AM EST 8:32 PM EST
Length of Visible Light 13h 19m
Length of Day
12h 34m
Tomorrow will be 1m 3s shorter.
Waxing Crescent, 7% of the Moon is Illuminated
Today
Waxing Crescent
Sep 2
First Quarter
Sep 8
Full
Sep 15
Last Quarter
Sep 24
New

Yesterday's Extremes

Country Highs Country Lows

Community

WunderPhotos

Upload Photos

1,747,916 photos uploaded!

Nearby

Snow Depth

Not available.

Earthquake Activity

City Distance Mag. Time & Date
No recent earthquake activity has been reported nearby.
Minimum magnitude displayed is 2.5.

Coastal Water Temperatures

Place Temperature
No Stations Reporting

Nearby Weather Stations